createdAt,value
2022-10-22T00:00:13.355Z,95.00
2022-10-22T00:02:40.178Z,95.10
2022-10-22T00:05:07.225Z,95.20
2022-10-22T00:07:33.971Z,95.10
2022-10-22T00:10:00.729Z,95.20
2022-10-22T00:12:27.565Z,95.60
2022-10-22T00:14:55.327Z,95.60
2022-10-22T00:17:22.120Z,95.10
2022-10-22T00:19:48.893Z,95.10
2022-10-22T00:22:15.651Z,95.00
2022-10-22T00:24:42.421Z,95.00
2022-10-22T00:27:10.378Z,95.00
2022-10-22T00:29:37.245Z,95.40
2022-10-22T00:32:04.297Z,95.00
2022-10-22T00:34:31.081Z,95.00
2022-10-22T00:36:57.838Z,95.20
2022-10-22T00:39:25.911Z,95.20
2022-10-22T00:41:53.573Z,95.20
2022-10-22T00:44:57.879Z,95.30
2022-10-22T00:47:25.855Z,95.20
2022-10-22T00:49:52.650Z,95.20
2022-10-22T00:52:19.593Z,95.10
2022-10-22T00:54:46.349Z,95.10
2022-10-22T00:57:13.088Z,95.10
2022-10-22T00:59:39.809Z,95.10
2022-10-22T01:02:06.557Z,95.10
2022-10-22T01:04:33.278Z,95.10
2022-10-22T01:07:00.027Z,95.10
2022-10-22T01:09:38.850Z,95.20
2022-10-22T01:12:22.746Z,95.30
2022-10-22T01:15:11.056Z,95.40
2022-10-22T01:17:44.174Z,95.50
2022-10-22T01:20:38.306Z,95.60
2022-10-22T01:23:38.097Z,95.40
2022-10-22T01:26:32.596Z,95.40
2022-10-22T01:29:01.459Z,95.20
2022-10-22T01:31:34.439Z,95.20
2022-10-22T01:34:01.163Z,95.20
2022-10-22T01:36:30.241Z,95.20
2022-10-22T01:38:58.646Z,95.20
2022-10-22T01:41:26.410Z,95.20
2022-10-22T01:43:53.117Z,95.50
2022-10-22T01:46:23.142Z,95.50
2022-10-22T01:49:12.678Z,95.60
2022-10-22T01:51:58.825Z,95.60
2022-10-22T01:54:35.640Z,95.60
2022-10-22T01:57:23.964Z,95.50
2022-10-22T02:03:00.518Z,95.30
2022-10-22T02:05:41.087Z,95.30
2022-10-22T02:08:12.322Z,95.30
2022-10-22T02:10:40.060Z,95.40
2022-10-22T02:13:12.000Z,95.30
2022-10-22T02:15:38.725Z,95.40
2022-10-22T02:18:05.583Z,95.90
2022-10-22T02:20:33.523Z,95.70
2022-10-22T02:23:01.468Z,95.70
2022-10-22T02:25:32.484Z,96.10
2022-10-22T02:28:04.906Z,95.70
2022-10-22T02:30:33.087Z,95.60
2022-10-22T02:33:21.567Z,95.50
2022-10-22T02:35:48.291Z,95.50
2022-10-22T02:38:15.046Z,95.40
2022-10-22T02:40:41.825Z,95.40
2022-10-22T02:43:08.546Z,95.30
2022-10-22T02:45:35.414Z,95.30
2022-10-22T02:48:03.673Z,95.30
2022-10-22T02:50:30.439Z,95.40
2022-10-22T02:52:57.190Z,95.60
2022-10-22T02:55:23.931Z,95.60
2022-10-22T02:57:50.656Z,95.70
2022-10-22T03:00:17.461Z,95.60
2022-10-22T03:02:44.186Z,95.50
2022-10-22T03:05:10.909Z,95.90
2022-10-22T03:07:37.876Z,95.50
2022-10-22T03:10:05.392Z,95.40
2022-10-22T03:12:32.917Z,95.80
2022-10-22T03:14:59.658Z,95.40
2022-10-22T03:17:26.393Z,95.40
2022-10-22T03:19:53.116Z,95.40
2022-10-22T03:22:27.814Z,95.40
2022-10-22T03:24:56.898Z,95.60
2022-10-22T03:27:23.682Z,95.70
2022-10-22T03:29:51.163Z,95.80
2022-10-22T03:32:18.094Z,95.90
2022-10-22T03:34:44.800Z,95.90
2022-10-22T03:37:11.517Z,96.20
2022-10-22T03:39:38.303Z,95.70
2022-10-22T03:42:06.320Z,95.70
2022-10-22T03:44:34.275Z,95.60
2022-10-22T03:47:02.687Z,95.60
2022-10-22T03:49:29.772Z,95.60
2022-10-22T03:51:56.519Z,95.60
2022-10-22T03:54:23.228Z,95.70
2022-10-22T03:56:50.010Z,95.60
2022-10-22T03:59:16.724Z,95.70
2022-10-22T04:01:43.505Z,95.90
2022-10-22T04:04:10.199Z,95.90
2022-10-22T04:06:37.568Z,96.00
2022-10-22T04:09:04.368Z,96.10
2022-10-22T04:11:31.160Z,95.90
2022-10-22T04:13:57.907Z,95.80
2022-10-22T04:16:27.401Z,95.70
2022-10-22T04:18:56.789Z,96.00
2022-10-22T04:21:23.521Z,95.60
2022-10-22T04:23:51.613Z,95.60
2022-10-22T04:26:18.693Z,95.50
2022-10-22T04:28:45.981Z,95.60
2022-10-22T04:31:14.273Z,95.60
2022-10-22T04:33:41.187Z,95.70
2022-10-22T04:36:10.336Z,95.80
2022-10-22T04:38:38.639Z,95.90
2022-10-22T04:41:11.025Z,95.80
2022-10-22T04:43:39.250Z,95.80
2022-10-22T04:46:07.663Z,95.80
2022-10-22T04:48:38.269Z,95.80
2022-10-22T04:51:06.829Z,95.70
2022-10-22T04:53:35.653Z,95.60
2022-10-22T04:56:22.717Z,95.60
2022-10-22T04:58:50.430Z,95.90
2022-10-22T05:01:27.534Z,95.60
2022-10-22T05:03:56.140Z,95.60
2022-10-22T05:06:23.449Z,95.50
2022-10-22T05:08:55.488Z,95.60
2022-10-22T05:11:24.235Z,95.70
2022-10-22T05:13:51.339Z,95.70
2022-10-22T05:16:18.375Z,95.70
2022-10-22T05:18:45.656Z,95.70
2022-10-22T05:21:17.000Z,95.70
2022-10-22T05:23:44.532Z,95.60
2022-10-22T05:26:13.031Z,95.60
2022-10-22T05:28:41.524Z,95.70
2022-10-22T05:31:10.416Z,96.40
2022-10-22T05:33:37.962Z,96.50
2022-10-22T05:36:05.276Z,96.40
2022-10-22T05:38:32.760Z,96.30
2022-10-22T05:41:06.473Z,96.40
2022-10-22T05:43:33.379Z,96.40
2022-10-22T05:46:11.867Z,96.60
2022-10-22T05:48:38.777Z,96.70
2022-10-22T05:51:11.274Z,96.70
2022-10-22T05:53:42.979Z,96.60
2022-10-22T05:56:13.264Z,96.60
2022-10-22T05:58:41.529Z,96.50
2022-10-22T06:01:16.193Z,96.50
2022-10-22T06:03:43.458Z,96.80
2022-10-22T06:06:38.735Z,96.60
2022-10-22T06:09:28.521Z,96.70
2022-10-22T06:11:56.500Z,96.60
2022-10-22T06:14:23.519Z,96.50
2022-10-22T06:16:50.663Z,96.30
2022-10-22T06:19:19.096Z,95.90
2022-10-22T06:21:45.962Z,96.10
2022-10-22T06:24:12.772Z,96.30
2022-10-22T06:26:40.900Z,96.40
2022-10-22T06:29:07.738Z,96.40
2022-10-22T06:31:37.280Z,96.40
2022-10-22T06:34:08.429Z,96.30
2022-10-22T06:36:35.714Z,96.50
2022-10-22T06:39:02.663Z,96.50
2022-10-22T06:41:29.788Z,96.80
2022-10-22T06:43:57.565Z,96.60
2022-10-22T06:46:24.800Z,96.80
2022-10-22T06:48:53.516Z,96.70
2022-10-22T06:51:21.185Z,96.40
2022-10-22T06:53:48.062Z,96.30
2022-10-22T06:56:16.868Z,96.00
2022-10-22T06:58:43.618Z,96.00
2022-10-22T07:01:13.278Z,96.50
2022-10-22T07:03:41.330Z,96.50
2022-10-22T07:06:12.592Z,96.60
2022-10-22T07:08:41.545Z,96.50
2022-10-22T07:11:17.129Z,96.40
2022-10-22T07:13:44.147Z,95.90
2022-10-22T07:16:12.148Z,96.10
2022-10-22T07:18:40.563Z,95.90
2022-10-22T07:21:07.503Z,95.90
2022-10-22T07:23:34.261Z,96.10
2022-10-22T07:26:02.804Z,96.20
2022-10-22T07:28:30.618Z,96.00
2022-10-22T07:30:57.349Z,96.40
2022-10-22T07:33:24.134Z,96.70
2022-10-22T07:35:50.917Z,96.70
2022-10-22T07:38:17.695Z,96.00
2022-10-22T07:40:44.477Z,95.80
2022-10-22T07:43:11.707Z,95.70
2022-10-22T07:45:39.649Z,95.50
2022-10-22T07:48:06.770Z,95.30
2022-10-22T07:50:33.572Z,95.20
2022-10-22T07:53:00.328Z,94.90
2022-10-22T07:55:27.112Z,94.80
2022-10-22T07:57:54.072Z,95.00
2022-10-22T08:00:23.213Z,94.60
2022-10-22T08:02:52.167Z,94.70
2022-10-22T08:05:18.942Z,94.90
2022-10-22T08:07:45.664Z,94.20
2022-10-22T08:10:12.708Z,93.90
2022-10-22T08:12:41.669Z,93.80
2022-10-22T08:15:10.468Z,93.70
2022-10-22T08:17:37.593Z,94.10
2022-10-22T08:20:05.077Z,93.70
2022-10-22T08:22:32.476Z,93.90
2022-10-22T08:25:00.576Z,94.30
2022-10-22T08:27:27.888Z,94.70
2022-10-22T08:29:55.028Z,94.30
2022-10-22T08:32:22.320Z,94.00
2022-10-22T08:34:49.437Z,94.00
2022-10-22T08:37:17.867Z,93.40
2022-10-22T08:39:45.374Z,93.40
2022-10-22T08:42:36.404Z,78.40
2022-10-22T08:45:24.804Z,73.50
2022-10-22T08:48:07.054Z,72.50
2022-10-22T08:50:47.614Z,72.70
2022-10-22T08:53:22.375Z,73.70
2022-10-22T08:55:50.058Z,74.20
2022-10-22T08:58:35.007Z,74.50
2022-10-22T09:01:16.483Z,75.00
2022-10-22T09:03:52.027Z,76.20
2022-10-22T09:06:24.345Z,76.40
2022-10-22T09:08:51.557Z,76.00
2022-10-22T09:11:34.352Z,75.00
2022-10-22T09:14:01.604Z,73.10
2022-10-22T09:16:37.880Z,73.00
2022-10-22T09:19:26.426Z,72.60
2022-10-22T09:21:59.357Z,73.70
2022-10-22T09:24:38.936Z,74.40
2022-10-22T09:27:15.972Z,74.30
2022-10-22T09:29:43.341Z,74.40
2022-10-22T09:32:11.160Z,74.40
2022-10-22T09:34:38.698Z,74.60
2022-10-22T09:37:08.067Z,75.00
2022-10-22T09:39:40.748Z,75.40
2022-10-22T09:42:08.538Z,75.90
2022-10-22T09:44:37.461Z,75.20
2022-10-22T09:47:13.184Z,76.30
2022-10-22T09:49:40.267Z,76.80
2022-10-22T09:52:12.219Z,75.80
2022-10-22T09:54:41.206Z,76.70
2022-10-22T09:57:22.163Z,77.80
2022-10-22T09:59:49.885Z,78.00
2022-10-22T10:02:37.585Z,77.80
2022-10-22T10:05:06.202Z,77.80
2022-10-22T10:07:33.394Z,77.70
2022-10-22T10:10:00.193Z,78.60
2022-10-22T10:12:32.832Z,78.90
2022-10-22T10:15:23.301Z,78.40
2022-10-22T10:18:08.660Z,78.80
2022-10-22T10:20:45.930Z,78.10
2022-10-22T10:23:32.449Z,77.90
2022-10-22T10:26:01.909Z,78.20
2022-10-22T10:28:50.580Z,77.40
2022-10-22T10:32:07.886Z,75.90
2022-10-22T10:34:57.151Z,77.80
2022-10-22T10:37:42.822Z,77.80
2022-10-22T10:40:18.275Z,79.50
2022-10-22T10:42:58.594Z,79.70
2022-10-22T10:45:28.483Z,81.10
2022-10-22T10:48:02.941Z,80.50
2022-10-22T10:50:34.938Z,81.40
2022-10-22T10:53:35.832Z,80.70
2022-10-22T10:56:21.172Z,81.20
2022-10-22T10:59:10.898Z,81.60
2022-10-22T11:01:52.423Z,81.60
2022-10-22T11:05:00.578Z,82.00
2022-10-22T11:07:35.396Z,81.60
2022-10-22T11:10:28.810Z,82.30
2022-10-22T11:13:32.872Z,82.10
2022-10-22T11:16:21.762Z,82.40
2022-10-22T11:18:53.571Z,82.20
2022-10-22T11:21:45.572Z,82.50
2022-10-22T11:24:52.059Z,82.40
2022-10-22T11:27:39.555Z,78.10
2022-10-22T11:30:13.990Z,78.50
2022-10-22T11:32:43.478Z,76.90
2022-10-22T11:35:23.483Z,76.80
2022-10-22T11:37:52.488Z,77.20
2022-10-22T11:40:59.235Z,79.10
2022-10-22T11:43:31.510Z,79.00
2022-10-22T11:46:22.593Z,78.90
2022-10-22T11:49:18.003Z,78.90
2022-10-22T11:51:45.155Z,78.90
2022-10-22T11:54:43.745Z,79.10
2022-10-22T11:57:16.661Z,79.10
2022-10-22T11:59:50.846Z,78.60
2022-10-22T12:02:50.852Z,78.80
2022-10-22T12:05:38.996Z,79.30
2022-10-22T12:08:17.294Z,79.80
2022-10-22T12:11:08.792Z,80.00
2022-10-22T12:14:00.351Z,79.20
2022-10-22T12:16:37.941Z,76.60
2022-10-22T12:19:18.861Z,76.90
2022-10-22T12:21:49.328Z,77.50
2022-10-22T12:24:18.211Z,79.20
2022-10-22T12:26:47.223Z,79.10
2022-10-22T12:29:16.326Z,76.30
2022-10-22T12:31:45.881Z,75.10
2022-10-22T12:34:17.884Z,71.90
2022-10-22T12:36:47.504Z,71.70
2022-10-22T12:39:19.155Z,73.40
2022-10-22T12:41:46.628Z,72.00
2022-10-22T12:44:16.532Z,72.70
2022-10-22T12:46:45.675Z,72.90
2022-10-22T12:49:16.804Z,69.20
2022-10-22T12:51:44.203Z,69.90
2022-10-22T12:54:22.826Z,71.00
2022-10-22T12:56:49.620Z,71.50
2022-10-22T12:59:23.129Z,72.10
2022-10-22T13:01:50.220Z,72.00
2022-10-22T13:04:21.204Z,72.00
2022-10-22T13:06:49.537Z,72.20
2022-10-22T13:09:27.409Z,73.30
2022-10-22T13:11:58.169Z,73.90
2022-10-22T13:14:29.762Z,74.10
2022-10-22T13:17:09.877Z,73.50
2022-10-22T13:19:37.604Z,72.90
2022-10-22T13:22:04.350Z,74.00
2022-10-22T13:24:31.155Z,73.00
2022-10-22T13:26:57.909Z,72.90
2022-10-22T13:29:24.624Z,72.60
2022-10-22T13:31:52.463Z,72.90
2022-10-22T13:34:23.565Z,73.10
2022-10-22T13:36:50.407Z,72.50
2022-10-22T13:39:21.976Z,73.10
2022-10-22T13:41:50.572Z,72.40
2022-10-22T13:44:18.570Z,71.90
2022-10-22T13:46:47.351Z,71.50
2022-10-22T13:49:18.920Z,71.50
2022-10-22T13:51:46.788Z,72.50
2022-10-22T13:54:19.270Z,73.20
2022-10-22T13:56:47.617Z,73.60
2022-10-22T13:59:16.211Z,74.20
2022-10-22T14:01:46.289Z,74.60
2022-10-22T14:04:13.265Z,75.00
2022-10-22T14:06:39.989Z,75.30
2022-10-22T14:09:10.492Z,75.60
2022-10-22T14:11:37.329Z,76.20
2022-10-22T14:14:08.598Z,76.50
2022-10-22T14:16:35.602Z,76.70
2022-10-22T14:19:02.384Z,76.90
2022-10-22T14:21:35.480Z,77.20
2022-10-22T14:24:02.208Z,77.30
2022-10-22T14:26:31.431Z,77.70
2022-10-22T14:29:13.890Z,78.00
2022-10-22T14:34:13.766Z,78.50
2022-10-22T14:36:44.253Z,78.90
2022-10-22T14:39:11.612Z,78.90
2022-10-22T14:41:38.386Z,79.10
2022-10-22T14:44:05.181Z,79.30
2022-10-22T14:46:31.969Z,79.50
2022-10-22T14:48:58.790Z,79.10
2022-10-22T14:51:25.557Z,79.20
2022-10-22T14:53:52.288Z,78.70
2022-10-22T14:56:24.918Z,78.60
2022-10-22T14:58:51.755Z,79.10
2022-10-22T15:01:19.660Z,79.20
2022-10-22T15:03:46.562Z,78.60
2022-10-22T15:06:13.739Z,77.10
2022-10-22T15:08:40.569Z,76.80
2022-10-22T15:11:12.007Z,76.70
2022-10-22T15:13:39.377Z,75.70
2022-10-22T15:16:06.809Z,75.70
2022-10-22T15:18:33.524Z,76.50
2022-10-22T15:21:02.401Z,75.90
2022-10-22T15:23:29.210Z,76.00
2022-10-22T15:25:55.962Z,74.80
2022-10-22T15:28:23.204Z,74.00
2022-10-22T15:30:56.939Z,74.80
2022-10-22T15:33:23.902Z,75.20
2022-10-22T15:35:50.697Z,75.60
2022-10-22T15:38:18.644Z,75.50
2022-10-22T15:40:45.937Z,77.50
2022-10-22T15:43:13.192Z,77.60
2022-10-22T15:45:40.036Z,77.30
2022-10-22T15:48:07.035Z,78.10
2022-10-22T15:50:39.216Z,80.30
2022-10-22T15:53:06.028Z,78.40
2022-10-22T15:55:32.775Z,77.90
2022-10-22T15:58:01.930Z,77.70
2022-10-22T16:00:30.979Z,77.60
2022-10-22T16:02:57.797Z,76.60
2022-10-22T16:05:30.185Z,76.30
2022-10-22T16:07:57.105Z,76.00
2022-10-22T16:10:24.443Z,76.10
2022-10-22T16:12:54.543Z,76.70
2022-10-22T16:15:22.509Z,76.20
2022-10-22T16:17:49.232Z,75.60
2022-10-22T16:20:16.027Z,75.10
2022-10-22T16:22:42.996Z,76.00
2022-10-22T16:25:10.045Z,78.70
2022-10-22T16:27:37.851Z,78.80
2022-10-22T16:30:05.027Z,78.90
2022-10-22T16:32:31.735Z,76.90
2022-10-22T16:34:59.044Z,77.80
2022-10-22T16:37:25.761Z,81.20
2022-10-22T16:39:53.702Z,80.60
2022-10-22T16:42:20.443Z,81.00
2022-10-22T16:44:47.164Z,81.60
2022-10-22T16:47:13.912Z,82.20
2022-10-22T16:49:40.672Z,82.10
2022-10-22T16:52:07.402Z,82.10
2022-10-22T16:54:34.127Z,82.50
2022-10-22T16:57:00.843Z,84.00
2022-10-22T16:59:27.595Z,83.80
2022-10-22T17:01:55.067Z,83.80
2022-10-22T17:04:23.885Z,83.80
2022-10-22T17:06:50.651Z,83.90
2022-10-22T17:09:17.452Z,84.60
2022-10-22T17:11:45.033Z,84.30
2022-10-22T17:14:11.838Z,84.70
2022-10-22T17:16:38.589Z,86.60
2022-10-22T17:19:06.047Z,86.60
2022-10-22T17:21:33.960Z,86.60
2022-10-22T17:24:00.853Z,85.40
2022-10-22T17:26:27.750Z,84.60
2022-10-22T17:28:57.715Z,84.50
2022-10-22T17:31:26.990Z,83.90
2022-10-22T17:33:55.534Z,84.30
2022-10-22T17:36:23.569Z,88.50
2022-10-22T17:38:56.009Z,87.80
2022-10-22T17:41:28.211Z,85.70
2022-10-22T17:43:56.574Z,85.40
2022-10-22T17:46:26.469Z,85.50
2022-10-22T17:48:59.117Z,85.90
2022-10-22T17:51:27.138Z,85.90
2022-10-22T17:53:54.747Z,86.30
2022-10-22T17:56:24.363Z,86.10
2022-10-22T17:58:52.023Z,84.70
2022-10-22T18:01:48.858Z,84.80
2022-10-22T18:04:19.139Z,85.20
2022-10-22T18:06:47.090Z,85.60
2022-10-22T18:09:18.747Z,86.50
2022-10-22T18:11:46.681Z,86.90
2022-10-22T18:14:13.444Z,87.60
2022-10-22T18:16:40.416Z,88.00
2022-10-22T18:19:07.223Z,87.90
2022-10-22T18:21:33.919Z,86.80
2022-10-22T18:24:00.661Z,87.90
2022-10-22T18:26:28.508Z,88.00
2022-10-22T18:28:57.555Z,88.20
2022-10-22T18:31:28.419Z,88.30
2022-10-22T18:33:57.863Z,88.40
2022-10-22T18:36:27.350Z,88.70
2022-10-22T18:38:58.953Z,89.00
2022-10-22T18:41:26.847Z,88.70
2022-10-22T18:43:54.757Z,89.20
2022-10-22T18:46:22.073Z,89.30
2022-10-22T18:48:48.827Z,89.00
2022-10-22T18:51:15.647Z,89.80
2022-10-22T18:53:44.182Z,89.80
2022-10-22T18:56:13.347Z,90.10
2022-10-22T18:58:40.818Z,90.60
2022-10-22T19:01:12.361Z,91.20
2022-10-22T19:03:39.095Z,91.00
2022-10-22T19:06:06.182Z,90.70
2022-10-22T19:08:33.027Z,90.50
2022-10-22T19:11:00.147Z,90.40
2022-10-22T19:13:27.511Z,90.70
2022-10-22T19:15:54.352Z,90.30
2022-10-22T19:18:21.080Z,90.10
2022-10-22T19:20:49.006Z,90.00
2022-10-22T19:23:19.936Z,89.50
2022-10-22T19:25:47.554Z,89.50
2022-10-22T19:28:14.259Z,89.40
2022-10-22T19:30:44.560Z,89.50
2022-10-22T19:33:11.350Z,89.70
2022-10-22T19:35:38.164Z,89.80
2022-10-22T19:38:04.912Z,90.00
2022-10-22T19:40:31.684Z,89.90
2022-10-22T19:43:00.275Z,89.80
2022-10-22T19:45:27.084Z,89.80
2022-10-22T19:47:53.841Z,89.80
2022-10-22T19:50:20.590Z,90.50
2022-10-22T19:52:47.330Z,90.60
2022-10-22T19:55:14.132Z,90.60
2022-10-22T19:57:41.112Z,90.40
2022-10-22T20:00:08.729Z,90.30
2022-10-22T20:02:35.703Z,90.30
2022-10-22T20:05:03.082Z,90.20
2022-10-22T20:07:30.805Z,90.10
2022-10-22T20:09:57.533Z,90.20
2022-10-22T20:12:25.542Z,90.20
2022-10-22T20:14:53.859Z,90.20
2022-10-22T20:17:20.609Z,90.00
2022-10-22T20:19:47.315Z,90.30
2022-10-22T20:22:17.770Z,90.20
2022-10-22T20:24:45.582Z,90.10
2022-10-22T20:27:12.914Z,90.40
2022-10-22T20:29:39.675Z,90.30
2022-10-22T20:32:08.743Z,90.30
2022-10-22T20:34:35.767Z,90.50
2022-10-22T20:37:02.577Z,90.30
2022-10-22T20:39:30.359Z,90.70
2022-10-22T20:41:57.265Z,90.20
2022-10-22T20:44:23.989Z,90.30
2022-10-22T20:46:51.718Z,90.60
2022-10-22T20:49:18.896Z,90.30
2022-10-22T20:51:45.930Z,90.40
2022-10-22T20:54:12.929Z,90.40
2022-10-22T20:56:40.326Z,90.40
2022-10-22T20:59:08.698Z,90.40
2022-10-22T21:01:41.077Z,90.40
2022-10-22T21:04:07.973Z,90.30
2022-10-22T21:06:37.988Z,90.40
2022-10-22T21:09:08.564Z,90.40
2022-10-22T21:11:35.843Z,90.60
2022-10-22T21:14:04.094Z,90.60
2022-10-22T21:16:30.916Z,90.60
2022-10-22T21:18:57.693Z,91.00
2022-10-22T21:21:24.490Z,90.70
2022-10-22T21:23:51.328Z,91.10
2022-10-22T21:26:18.919Z,90.70
2022-10-22T21:28:45.750Z,90.80
2022-10-22T21:31:18.682Z,91.10
2022-10-22T21:33:45.483Z,90.90
2022-10-22T21:36:12.209Z,91.00
2022-10-22T21:38:39.019Z,91.00
2022-10-22T21:41:10.608Z,91.40
2022-10-22T21:43:37.962Z,91.20
2022-10-22T21:46:15.559Z,91.20
2022-10-22T21:48:42.347Z,91.20
2022-10-22T21:51:10.760Z,91.20
2022-10-22T21:53:37.630Z,91.50
2022-10-22T21:56:06.155Z,91.10
2022-10-22T21:58:37.029Z,91.20
2022-10-22T22:01:05.846Z,91.20
2022-10-22T22:03:32.703Z,91.20
2022-10-22T22:06:05.110Z,91.20
2022-10-22T22:08:32.508Z,91.40
2022-10-22T22:11:19.381Z,91.50
2022-10-22T22:13:47.211Z,91.50
2022-10-22T22:16:16.506Z,91.50
2022-10-22T22:18:43.253Z,91.60
2022-10-22T22:21:11.597Z,91.60
2022-10-22T22:23:39.579Z,91.50
2022-10-22T22:26:07.637Z,91.50
2022-10-22T22:28:34.526Z,91.50
2022-10-22T22:31:01.433Z,91.50
2022-10-22T22:33:28.242Z,91.50
2022-10-22T22:35:58.720Z,91.50
2022-10-22T22:38:25.475Z,91.50
2022-10-22T22:40:52.192Z,91.50
2022-10-22T22:43:18.949Z,91.60
2022-10-22T22:45:45.667Z,91.80
2022-10-22T22:48:12.377Z,91.80
2022-10-22T22:50:39.773Z,91.80
2022-10-22T22:53:06.724Z,91.70
2022-10-22T22:55:33.962Z,91.80
2022-10-22T22:58:00.687Z,92.10
2022-10-22T23:00:27.448Z,91.80
2022-10-22T23:02:55.517Z,91.70
2022-10-22T23:05:22.271Z,91.60
2022-10-22T23:07:49.107Z,91.70
2022-10-22T23:10:15.915Z,91.70
2022-10-22T23:12:42.914Z,91.70
2022-10-22T23:15:11.349Z,91.70
2022-10-22T23:17:39.389Z,91.70
2022-10-22T23:20:07.529Z,92.00
2022-10-22T23:22:34.319Z,92.10
2022-10-22T23:25:01.165Z,92.10
2022-10-22T23:27:27.888Z,92.10
2022-10-22T23:29:54.607Z,92.00
2022-10-22T23:32:21.349Z,92.00
2022-10-22T23:34:48.101Z,91.90
2022-10-22T23:37:14.839Z,91.90
2022-10-22T23:39:42.409Z,91.90
2022-10-22T23:42:09.155Z,91.80
2022-10-22T23:44:35.896Z,91.90
2022-10-22T23:47:02.647Z,91.90
2022-10-22T23:49:29.348Z,91.80
2022-10-22T23:51:56.067Z,91.90
2022-10-22T23:54:22.770Z,91.90
2022-10-22T23:56:49.533Z,92.10
2022-10-22T23:59:16.441Z,92.10
